Souris, North Dakota
Current Conditions -  °F | °C
As of 4:08 PM on Monday 22 Dec 2014 (Local Time) from KMIB Reporting Station
Overcast Overcast  
Wind Chill: 18°   Ceiling: 500
Heat Index: 28°   Visibility: 8mi
Dew Point: 28°   Wind: 12mph
Humidity: 100%   Direction: 330°NNW
Pressure: 29.65"   Gusts: NA
Location:  48.91°N, 100.68°W
Report Text: KMIB 222208Z AUTO 33010KT 8SM BKN005 OVC011 M02/M02 A2965 RMK AO2 CIG 005V008 $
Loading
Personal Weather Stations






























Interactive Weather Map New forecast layout! Learn more

10-Day Weather Forecast

Advertisements
Track Severe Weather on mobile